Time;durP1;ratioP1;P1;durP2;ratioP2;P2;SDS_P1;SDS_P2;PMS_P1;PMS_P2;Temp;Humidity;BMP_temperature;BMP_pressure;BME280_temperature;BME280_humidity;BME280_pressure;Samples;Min_cycle;Max_cycle;Signal;HPM_P1;HPM_P2
2022/10/10 00:00:43;;;;;;;4.22;2.10;;;;;;;8.81;69.47;99035.28;5027220;28;20021;-80
2022/10/10 00:03:08;;;;;;;5.60;2.40;;;;;;;9.09;69.65;99052.41;5031203;28;20020;-80
2022/10/10 00:05:37;;;;;;;4.53;2.15;;;;;;;8.94;69.82;99045.69;5035552;28;20384;-81
2022/10/10 00:08:03;;;;;;;3.08;2.10;;;;;;;8.62;70.54;99036.47;5028259;28;20029;-81
2022/10/10 00:10:29;;;;;;;6.32;2.28;;;;;;;8.89;69.78;99047.44;5046263;28;20032;-81
2022/10/10 00:12:54;;;;;;;4.65;2.25;;;;;;;8.84;70.14;99047.34;5045760;28;20044;-81
2022/10/10 00:15:20;;;;;;;6.10;2.50;;;;;;;8.94;69.49;99043.03;5044601;28;20477;-81
2022/10/10 00:17:45;;;;;;;3.60;2.20;;;;;;;8.93;69.49;99044.06;5045954;28;20175;-81
2022/10/10 00:20:13;;;;;;;4.40;2.00;;;;;;;8.69;70.37;99015.84;5044637;28;21901;-80
2022/10/10 00:22:39;;;;;;;4.30;2.28;;;;;;;8.71;69.21;99016.44;5048939;28;20028;-81
2022/10/10 00:25:06;;;;;;;5.97;2.58;;;;;;;8.88;69.95;99036.00;5028866;28;20029;-81
2022/10/10 00:27:31;;;;;;;3.55;3.25;;;;;;;8.74;69.90;99029.28;5016048;28;20480;-80
2022/10/10 00:29:57;;;;;;;4.15;2.83;;;;;;;8.69;70.23;99015.84;5048044;28;20083;-80
2022/10/10 00:32:23;;;;;;;2.53;2.22;;;;;;;8.70;69.03;99008.69;5007992;28;20033;-80
2022/10/10 00:34:48;;;;;;;6.10;2.53;;;;;;;8.77;69.76;99022.69;5007169;28;20381;-81
2022/10/10 00:37:13;;;;;;;4.65;3.22;;;;;;;8.71;70.21;99032.41;5013785;28;20656;-81
2022/10/10 00:39:39;;;;;;;6.05;2.72;;;;;;;8.65;70.10;99012.03;5026214;28;20047;-81
2022/10/10 00:42:04;;;;;;;2.92;2.13;;;;;;;8.69;69.46;99010.53;5028170;28;20049;-81
2022/10/10 00:44:30;;;;;;;6.38;2.45;;;;;;;8.60;70.11;99000.47;4995939;28;20033;-81
2022/10/10 00:46:55;;;;;;;5.80;2.28;;;;;;;8.76;70.16;99024.53;5009511;28;20082;-80
2022/10/10 00:49:25;;;;;;;5.82;2.00;;;;;;;8.79;69.47;99016.09;5028419;28;20558;-80
2022/10/10 00:51:54;;;;;;;4.30;2.40;;;;;;;8.80;69.97;99016.91;5041688;28;20044;-81
2022/10/10 00:54:22;;;;;;;5.20;2.67;;;;;;;8.73;70.04;99002.91;5040978;28;20052;-81
2022/10/10 00:56:54;;;;;;;6.10;2.05;;;;;;;8.64;69.84;98985.66;5041555;28;20114;-81
2022/10/10 00:59:20;;;;;;;8.00;2.78;;;;;;;8.64;69.60;98988.34;5031286;28;20029;-81
2022/10/10 01:01:46;;;;;;;3.78;2.45;;;;;;;8.70;69.81;99003.34;5022728;28;20362;-81
2022/10/10 01:04:34;;;;;;;4.80;2.33;;;;;;;8.68;70.47;98994.81;5043146;28;20036;-80
2022/10/10 01:07:04;;;;;;;4.38;3.08;;;;;;;8.67;69.83;98999.31;5036984;28;20039;-80
2022/10/10 01:09:30;;;;;;;5.20;2.00;;;;;;;8.57;70.27;98977.81;5025926;28;20029;-80
2022/10/10 01:12:28;;;;;;;3.35;2.20;;;;;;;8.69;69.90;98991.91;5021768;28;20033;-82
2022/10/10 01:15:16;;;;;;;7.05;2.92;;;;;;;8.62;70.13;98991.22;5017321;28;20040;-81
2022/10/10 01:17:57;;;;;;;5.90;2.28;;;;;;;8.68;70.44;98979.66;5040063;28;20033;-81
2022/10/10 01:20:50;;;;;;;3.47;2.03;;;;;;;8.52;69.94;98985.66;5043916;28;20420;-81
2022/10/10 01:23:35;;;;;;;3.88;2.20;;;;;;;8.64;70.43;98981.16;5028337;28;20044;-81
2022/10/10 01:26:23;;;;;;;5.00;2.58;;;;;;;8.68;70.24;98982.31;5046996;28;20123;-80
2022/10/10 01:29:10;;;;;;;3.30;2.08;;;;;;;8.66;70.38;98987.06;5046988;28;20496;-81
2022/10/10 01:31:38;;;;;;;;;;;;;;;8.65;70.25;98980.09;5029843;28;20028;-81
2022/10/10 01:34:11;;;;;;;5.03;2.30;;;;;;;8.61;69.75;98963.00;5049927;28;20834;-81
2022/10/10 01:37:03;;;;;;;5.03;3.80;;;;;;;8.57;70.51;98971.66;5030461;28;20124;-80
2022/10/10 01:39:59;;;;;;;3.30;2.58;;;;;;;8.59;70.00;98969.59;5049950;28;20028;-80
2022/10/10 01:42:36;;;;;;;5.50;2.83;;;;;;;8.49;69.86;98940.13;5031401;28;20123;-80
2022/10/10 01:45:02;;;;;;;2.75;2.53;;;;;;;8.43;70.51;98947.16;5046823;28;20029;-81
2022/10/10 01:47:28;;;;;;;4.22;2.53;;;;;;;8.44;70.33;98942.66;5032398;28;20642;-81
2022/10/10 01:49:57;;;;;;;2.80;2.00;;;;;;;8.44;70.96;98935.50;5042842;28;20041;-80
2022/10/10 01:52:42;;;;;;;2.42;2.00;;;;;;;8.48;69.65;98947.28;5024931;28;20492;-81
2022/10/10 01:55:10;;;;;;;3.30;2.28;;;;;;;8.51;70.54;98944.16;5030154;28;20063;-81
2022/10/10 01:57:58;;;;;;;3.55;2.30;;;;;;;8.49;70.96;98940.94;5028076;28;20024;-80
2022/10/10 02:00:24;;;;;;;2.88;2.22;;;;;;;8.41;70.58;98924.53;5042933;28;20420;-80
2022/10/10 02:02:52;;;;;;;6.28;2.50;;;;;;;8.57;70.33;98932.59;5041870;28;20029;-80
2022/10/10 02:05:38;;;;;;;2.95;2.20;;;;;;;8.54;70.11;98941.03;5045837;28;20090;-80
2022/10/10 02:08:34;;;;;;;4.05;2.47;;;;;;;8.55;70.48;98932.00;5046730;28;20053;-80
2022/10/10 02:11:07;;;;;;;3.53;2.00;;;;;;;8.41;70.40;98905.91;5010250;28;20048;-80
2022/10/10 02:13:42;;;;;;;2.42;2.00;;;;;;;8.36;70.64;98900.47;5028751;28;20032;-81
2022/10/10 02:16:14;;;;;;;4.32;2.53;;;;;;;8.37;70.24;98902.88;5027174;28;20116;-81
2022/10/10 02:18:46;;;;;;;6.03;2.60;;;;;;;8.52;70.29;98913.06;5046918;28;20130;-80
2022/10/10 02:21:14;;;;;;;2.72;1.90;;;;;;;8.39;70.99;98903.44;5014875;28;20040;-81
2022/10/10 02:23:42;;;;;;;3.70;2.20;;;;;;;8.31;70.87;98893.19;5031318;28;20040;-81
2022/10/10 02:26:11;;;;;;;7.97;2.15;;;;;;;8.37;70.36;98894.91;5046929;28;20041;-81
2022/10/10 02:28:56;;;;;;;2.78;2.17;;;;;;;8.39;70.53;98886.72;5023612;28;20029;-81
2022/10/10 02:31:45;;;;;;;2.63;2.03;;;;;;;8.43;70.32;98901.94;5028134;28;20089;-80
2022/10/10 02:34:17;;;;;;;3.05;2.55;;;;;;;8.25;70.43;98875.47;5043805;28;20099;-81
2022/10/10 02:36:48;;;;;;;3.53;1.85;;;;;;;8.40;69.89;98886.47;5028041;28;20021;-80
2022/10/10 02:39:16;;;;;;;2.92;2.17;;;;;;;8.40;70.08;98885.66;5044561;28;20029;-81
2022/10/10 02:41:45;;;;;;;3.28;2.45;;;;;;;8.29;70.26;98881.97;5047821;28;20029;-81
2022/10/10 02:44:12;;;;;;;2.47;2.22;;;;;;;8.26;70.44;98877.09;5050848;28;20037;-81
2022/10/10 02:46:38;;;;;;;3.47;2.17;;;;;;;8.38;70.68;98893.88;5038763;28;20025;-81
2022/10/10 02:49:06;;;;;;;2.60;2.33;;;;;;;8.37;70.27;98886.09;5048066;28;20124;-81
2022/10/10 02:51:32;;;;;;;4.65;2.50;;;;;;;8.37;70.82;98878.13;5046042;28;20048;-81
2022/10/10 02:53:57;;;;;;;5.65;2.65;;;;;;;8.32;70.19;98882.31;5015985;28;20123;-81
2022/10/10 02:56:23;;;;;;;4.72;2.30;;;;;;;8.38;70.74;98885.06;5030330;28;20024;-80
2022/10/10 02:58:48;;;;;;;6.82;2.97;;;;;;;8.35;70.12;98878.38;5046437;28;20082;-81
2022/10/10 03:01:13;;;;;;;5.60;2.53;;;;;;;8.31;70.42;98871.91;5027759;28;20048;-81
2022/10/10 03:03:39;;;;;;;5.35;2.33;;;;;;;8.30;69.88;98871.09;5052018;28;20052;-81
2022/10/10 03:06:04;;;;;;;5.55;2.42;;;;;;;8.37;70.28;98883.44;5034329;28;20061;-81
2022/10/10 03:08:29;;;;;;;3.97;2.10;;;;;;;8.14;70.35;98860.34;5043958;28;20033;-81
2022/10/10 03:11:00;;;;;;;4.25;2.33;;;;;;;8.18;71.00;98859.63;5028331;28;20119;-80
2022/10/10 03:13:26;;;;;;;3.40;2.58;;;;;;;8.26;70.28;98869.13;5028471;28;20032;-81
2022/10/10 03:15:51;;;;;;;6.65;2.38;;;;;;;8.08;70.26;98842.66;5042608;28;20032;-81
2022/10/10 03:18:17;;;;;;;3.03;2.47;;;;;;;8.20;70.33;98851.41;5044776;28;20036;-81
2022/10/10 03:21:02;;;;;;;2.55;1.98;;;;;;;8.25;70.29;98871.00;5015664;28;20469;-81
2022/10/10 03:23:27;;;;;;;6.10;2.78;;;;;;;8.20;70.63;98867.38;5028438;28;20380;-81
2022/10/10 03:25:53;;;;;;;3.10;2.42;;;;;;;8.19;70.93;98868.44;5034664;28;20033;-81
2022/10/10 03:28:19;;;;;;;3.88;2.20;;;;;;;8.17;71.03;98859.84;5048525;28;20401;-80
2022/10/10 03:30:46;;;;;;;2.83;2.30;;;;;;;8.05;70.71;98867.84;5023450;28;20036;-81
2022/10/10 03:33:11;;;;;;;3.13;2.33;;;;;;;8.16;70.50;98858.25;5026582;28;20071;-81
2022/10/10 03:35:37;;;;;;;5.82;2.15;;;;;;;8.24;70.35;98871.19;5030117;28;20085;-81
2022/10/10 03:38:02;;;;;;;3.55;2.50;;;;;;;8.22;70.41;98870.59;5027729;28;20078;-80
2022/10/10 03:40:28;;;;;;;8.52;2.90;;;;;;;8.24;70.33;98866.69;5031143;28;20109;-81
2022/10/10 03:42:54;;;;;;;5.82;3.15;;;;;;;8.34;70.23;98876.78;5032956;28;20412;-81
2022/10/10 03:45:19;;;;;;;4.40;2.55;;;;;;;8.10;70.38;98849.34;5048485;28;20020;-80
2022/10/10 03:47:44;;;;;;;5.03;2.95;;;;;;;8.13;70.16;98856.03;5018001;28;20028;-81
2022/10/10 03:50:10;;;;;;;3.08;2.45;;;;;;;8.25;69.92;98863.03;5017103;28;20052;-81
2022/10/10 03:52:36;;;;;;;4.60;2.50;;;;;;;8.19;69.99;98858.59;5010422;28;20039;-81
2022/10/10 03:55:02;;;;;;;3.83;2.80;;;;;;;8.10;70.33;98854.66;5023192;28;20143;-81
2022/10/10 03:57:27;;;;;;;4.40;2.78;;;;;;;8.11;70.09;98850.16;5046820;28;20025;-81
2022/10/10 03:59:53;;;;;;;4.03;2.70;;;;;;;8.06;70.56;98863.34;5009817;28;20037;-80
2022/10/10 04:02:18;;;;;;;5.10;2.38;;;;;;;8.08;70.27;98859.41;5039286;28;20423;-78
2022/10/10 04:04:43;;;;;;;4.03;2.60;;;;;;;8.04;70.53;98854.78;5021759;28;20385;-78
2022/10/10 04:07:09;;;;;;;2.08;1.98;;;;;;;8.13;70.40;98877.31;5017861;28;20037;-79
2022/10/10 04:09:34;;;;;;;4.78;2.50;;;;;;;8.13;70.58;98872.00;5005079;28;20033;-78
2022/10/10 04:12:01;;;;;;;2.83;2.53;;;;;;;8.10;70.66;98861.84;5004805;28;20139;-78
2022/10/10 04:14:26;;;;;;;4.30;2.22;;;;;;;8.17;70.45;98859.84;5025508;28;20128;-78
2022/10/10 04:16:52;;;;;;;3.88;2.63;;;;;;;8.02;70.85;98848.88;5021170;28;20239;-78
2022/10/10 04:19:17;;;;;;;3.80;2.33;;;;;;;8.05;70.36;98856.41;5040171;28;20049;-78
2022/10/10 04:21:43;;;;;;;7.93;3.00;;;;;;;7.92;69.85;98861.94;5021194;28;20025;-78
2022/10/10 04:24:09;;;;;;;5.70;3.03;;;;;;;7.77;71.16;98857.09;5029008;28;20037;-79
2022/10/10 04:26:34;;;;;;;3.45;2.67;;;;;;;7.06;74.31;98859.81;5032164;28;20037;-78
2022/10/10 04:29:00;;;;;;;8.48;3.05;;;;;;;7.83;71.97;98861.50;5025968;28;20120;-78
2022/10/10 04:31:25;;;;;;;5.65;2.30;;;;;;;8.08;70.83;98859.41;5035272;28;20064;-78
2022/10/10 04:33:51;;;;;;;3.05;2.30;;;;;;;8.00;70.29;98840.34;5043661;28;20092;-80
2022/10/10 04:36:17;;;;;;;5.18;2.90;;;;;;;8.01;70.62;98840.13;5003060;28;20156;-82
2022/10/10 04:38:42;;;;;;;3.58;2.88;;;;;;;8.08;69.75;98846.09;5030061;28;20028;-80
2022/10/10 04:41:08;;;;;;;3.22;2.55;;;;;;;8.12;69.61;98854.44;5049080;28;20470;-81
2022/10/10 04:43:33;;;;;;;2.83;2.05;;;;;;;8.08;70.34;98845.31;5050383;28;20029;-81
2022/10/10 04:45:58;;;;;;;6.75;3.00;;;;;;;7.20;73.11;98855.13;5029274;28;20045;-80
2022/10/10 04:48:24;;;;;;;4.85;2.90;;;;;;;6.27;76.26;98853.88;5029788;28;20041;-79
2022/10/10 04:50:53;;;;;;;8.20;3.33;;;;;;;5.92;77.68;98835.88;5014947;28;20041;-79
2022/10/10 04:53:19;;;;;;;6.70;3.83;;;;;;;6.60;76.68;98857.75;5013220;28;20099;-79
2022/10/10 04:55:45;;;;;;;4.50;2.50;;;;;;;7.50;72.64;98843.44;5055344;28;20033;-79
2022/10/10 04:58:10;;;;;;;4.63;2.10;;;;;;;7.67;71.98;98824.16;5039796;28;20086;-79
2022/10/10 05:00:37;;;;;;;2.60;2.33;;;;;;;7.92;71.32;98846.81;5039079;28;20498;-81
2022/10/10 05:03:03;;;;;;;2.33;2.13;;;;;;;7.99;70.72;98847.53;5042943;28;20036;-81
2022/10/10 05:05:28;;;;;;;4.38;3.00;;;;;;;7.92;71.36;98846.00;5036037;28;20029;-78
2022/10/10 05:07:53;;;;;;;6.97;2.63;;;;;;;8.03;70.91;98839.88;5035892;28;20059;-79
2022/10/10 05:10:19;;;;;;;4.53;3.63;;;;;;;7.95;70.72;98834.94;5004814;28;20056;-78
2022/10/10 05:12:44;;;;;;;3.60;2.33;;;;;;;7.95;71.29;98829.59;5055732;28;20480;-79
2022/10/10 05:15:09;;;;;;;4.15;2.72;;;;;;;7.85;71.06;98813.41;5046866;28;20386;-79
2022/10/10 05:17:35;;;;;;;3.85;3.00;;;;;;;8.07;71.03;98828.56;5017596;28;20036;-79
2022/10/10 05:20:00;;;;;;;5.65;2.88;;;;;;;8.17;70.86;98835.91;5029872;28;20040;-79
2022/10/10 05:22:25;;;;;;;5.25;2.78;;;;;;;7.96;70.55;98826.72;5033434;28;20025;-78
2022/10/10 05:24:51;;;;;;;4.45;3.00;;;;;;;7.31;73.36;98822.50;5043744;28;20486;-79
2022/10/10 05:27:16;;;;;;;5.18;2.40;;;;;;;7.91;71.52;98818.63;5044303;28;20113;-79
2022/10/10 05:29:42;;;;;;;4.90;2.70;;;;;;;7.72;72.17;98830.41;4998929;28;20044;-79
2022/10/10 05:32:07;;;;;;;3.08;2.65;;;;;;;7.74;71.48;98817.69;5014116;28;20025;-79
2022/10/10 05:34:33;;;;;;;4.60;3.55;;;;;;;7.42;73.00;98825.19;5017093;28;20025;-79
2022/10/10 05:36:58;;;;;;;5.00;2.45;;;;;;;7.60;72.79;98807.53;5032821;28;20036;-79
2022/10/10 05:39:23;;;;;;;2.72;2.22;;;;;;;8.05;71.31;98824.50;4999089;28;20033;-79
2022/10/10 05:41:49;;;;;;;2.88;2.22;;;;;;;8.08;71.13;98840.78;5028247;28;20033;-79
2022/10/10 05:44:14;;;;;;;8.15;3.50;;;;;;;8.15;70.63;98822.88;5054744;28;20040;-78
2022/10/10 05:46:40;;;;;;;6.88;2.80;;;;;;;8.22;70.66;98825.41;5021119;28;20422;-79
2022/10/10 05:49:05;;;;;;;8.80;3.38;;;;;;;8.25;71.09;98838.25;5043961;28;20116;-79
2022/10/10 05:51:30;;;;;;;4.25;3.28;;;;;;;8.07;70.94;98809.94;5042663;28;20024;-78
2022/10/10 05:53:56;;;;;;;5.05;3.13;;;;;;;8.03;71.54;98808.81;5052988;28;20094;-78
2022/10/10 05:56:22;;;;;;;4.35;2.47;;;;;;;8.06;71.14;98816.28;5025500;28;20028;-78
2022/10/10 05:58:50;;;;;;;4.28;2.75;;;;;;;7.97;72.65;98827.53;5035938;28;20063;-79
2022/10/10 06:01:16;;;;;;;4.07;2.63;;;;;;;8.12;71.37;98835.84;5028728;28;20105;-78
2022/10/10 06:03:41;;;;;;;4.72;3.53;;;;;;;8.01;71.37;98802.91;5031853;28;20423;-78
2022/10/10 06:06:06;;;;;;;7.35;2.92;;;;;;;8.03;71.73;98818.63;5037796;28;20903;-80
2022/10/10 06:08:32;;;;;;;4.75;2.80;;;;;;;8.00;71.27;98808.44;5034030;28;20032;-78
2022/10/10 06:11:03;;;;;;;3.47;2.60;;;;;;;8.04;71.20;98812.25;5032118;28;20056;-78
2022/10/10 06:13:29;;;;;;;2.83;2.35;;;;;;;8.06;71.46;98831.47;5014949;28;20033;-78
2022/10/10 06:15:54;;;;;;;5.70;2.90;;;;;;;8.09;71.39;98825.66;5034684;28;20036;-78
2022/10/10 06:18:19;;;;;;;6.20;2.67;;;;;;;8.01;71.49;98804.75;5033575;28;20028;-79
2022/10/10 06:20:45;;;;;;;5.15;3.08;;;;;;;7.91;71.58;98785.91;5035445;28;20102;-79
2022/10/10 06:23:11;;;;;;;3.58;2.38;;;;;;;7.95;71.92;98800.38;5051151;28;20025;-79
2022/10/10 06:25:36;;;;;;;4.25;3.10;;;;;;;8.01;71.52;98805.56;5055423;28;20121;-79
2022/10/10 06:28:02;;;;;;;4.78;2.53;;;;;;;8.18;71.79;98825.06;5031913;28;20053;-79
2022/10/10 06:30:28;;;;;;;4.38;2.78;;;;;;;8.07;71.97;98827.75;5038620;28;20488;-79
2022/10/10 06:32:54;;;;;;;6.95;2.85;;;;;;;7.95;72.74;98826.94;5033936;28;20048;-79
2022/10/10 06:35:19;;;;;;;4.88;2.35;;;;;;;8.05;72.26;98835.97;5018729;28;20029;-78
2022/10/10 06:37:45;;;;;;;3.65;2.42;;;;;;;8.01;72.27;98807.41;5051418;28;20286;-79
2022/10/10 06:40:10;;;;;;;4.85;2.65;;;;;;;8.04;71.71;98813.06;5039568;28;20029;-79
2022/10/10 06:42:36;;;;;;;5.72;3.05;;;;;;;7.98;73.02;98823.81;5055742;28;20481;-79
2022/10/10 06:45:02;;;;;;;4.53;2.60;;;;;;;8.05;72.17;98820.00;5043768;28;20029;-79
2022/10/10 06:47:28;;;;;;;4.20;2.83;;;;;;;7.87;73.25;98808.69;5015142;28;22102;-79
2022/10/10 06:49:54;;;;;;;4.47;2.70;;;;;;;7.91;73.08;98821.28;5032443;28;20029;-79
2022/10/10 06:52:19;;;;;;;3.78;2.40;;;;;;;8.16;72.26;98807.75;5028712;28;20043;-79
2022/10/10 06:54:45;;;;;;;3.80;3.08;;;;;;;8.12;71.73;98812.72;5032176;28;20469;-78
2022/10/10 06:57:10;;;;;;;5.60;2.80;;;;;;;8.20;72.22;98825.66;5031566;28;20025;-79
2022/10/10 06:59:36;;;;;;;5.15;2.58;;;;;;;8.35;71.71;98827.03;5048369;28;20107;-79
2022/10/10 07:02:01;;;;;;;5.75;2.80;;;;;;;7.99;72.63;98815.63;5018895;28;20068;-79
2022/10/10 07:04:27;;;;;;;8.40;3.22;;;;;;;7.49;76.83;98823.22;5039515;28;20036;-78
2022/10/10 07:06:52;;;;;;;5.95;3.33;;;;;;;7.56;76.78;98831.88;5035838;28;20052;-79
2022/10/10 07:09:19;;;;;;;7.18;3.83;;;;;;;7.56;76.39;98821.25;5057592;28;20036;-79
2022/10/10 07:11:44;;;;;;;13.45;3.92;;;;;;;7.08;81.25;98833.84;5057846;28;20104;-79
2022/10/10 07:14:13;;;;;;;6.82;2.95;;;;;;;7.74;74.81;98830.97;5037847;28;20125;-79
2022/10/10 07:16:39;;;;;;;3.67;2.17;;;;;;;7.81;73.92;98801.66;5032360;28;20021;-79
2022/10/10 07:19:05;;;;;;;5.10;2.60;;;;;;;7.94;74.14;98834.09;5059670;28;20481;-79
2022/10/10 07:21:30;;;;;;;8.95;3.90;;;;;;;7.67;78.06;98826.81;5054453;28;20055;-78
2022/10/10 07:23:56;;;;;;;3.08;2.58;;;;;;;7.92;74.44;98833.53;5021075;28;20029;-79
2022/10/10 07:26:25;;;;;;;7.63;3.78;;;;;;;7.70;78.18;98837.78;5053670;28;20029;-78
2022/10/10 07:28:51;;;;;;;11.20;3.92;;;;;;;7.17;83.20;98823.72;5043451;28;20582;-78
2022/10/10 07:31:16;;;;;;;6.05;3.20;;;;;;;7.61;76.86;98817.09;5029957;28;20021;-79
2022/10/10 07:33:44;;;;;;;3.88;3.45;;;;;;;7.60;78.22;98832.22;5049424;28;20063;-79
2022/10/10 07:36:10;;;;;;;12.43;4.10;;;;;;;7.72;79.08;98822.44;5004580;28;20028;-79
2022/10/10 07:38:36;;;;;;;5.45;3.63;;;;;;;7.85;77.04;98808.91;4994922;28;20033;-79
2022/10/10 07:41:11;;;;;;;5.78;2.60;;;;;;;8.14;75.21;98829.25;5011543;28;20044;-79
2022/10/10 07:43:36;;;;;;;7.22;3.22;;;;;;;8.20;75.13;98825.66;5025266;28;20044;-79
2022/10/10 07:46:05;;;;;;;4.95;3.70;;;;;;;8.22;74.38;98847.50;5034883;28;20029;-79
2022/10/10 07:48:31;;;;;;;8.98;3.00;;;;;;;8.25;74.43;98836.44;5026159;28;20036;-79
2022/10/10 07:50:57;;;;;;;5.47;2.80;;;;;;;8.37;74.34;98841.72;5045558;28;20036;-79
2022/10/10 07:53:23;;;;;;;5.88;2.90;;;;;;;8.16;75.15;98813.06;5027466;28;20033;-79
2022/10/10 07:55:48;;;;;;;3.88;2.88;;;;;;;8.25;74.42;98822.28;5013698;28;20086;-79
2022/10/10 07:58:14;;;;;;;4.50;3.28;;;;;;;8.46;75.13;98848.28;5048487;28;20427;-79
2022/10/10 08:00:40;;;;;;;6.53;3.33;;;;;;;8.39;73.96;98831.66;5022480;28;20045;-79
2022/10/10 08:03:09;;;;;;;4.82;3.17;;;;;;;8.28;75.39;98822.66;5012902;28;20396;-79
2022/10/10 08:05:42;;;;;;;9.60;3.85;;;;;;;8.45;76.92;98840.56;5033757;28;20131;-79
2022/10/10 08:08:09;;;;;;;6.32;3.22;;;;;;;8.36;74.72;98808.19;5014843;28;20033;-79
2022/10/10 08:10:34;;;;;;;6.45;3.92;;;;;;;8.24;80.04;98825.97;5015433;28;20518;-79
2022/10/10 08:13:00;;;;;;;6.20;4.30;;;;;;;8.25;78.68;98825.81;5000937;28;20036;-79
2022/10/10 08:15:25;;;;;;;4.63;3.10;;;;;;;8.52;74.78;98822.63;5019110;28;20510;-79
2022/10/10 08:17:50;;;;;;;10.15;4.35;;;;;;;8.67;74.41;98839.66;5022798;28;20074;-79
2022/10/10 08:20:16;;;;;;;6.18;3.53;;;;;;;8.43;77.98;98832.78;5025474;28;20037;-79
2022/10/10 08:22:41;;;;;;;9.05;3.95;;;;;;;8.46;75.55;98808.41;5022677;28;20037;-79
2022/10/10 08:25:07;;;;;;;4.78;2.90;;;;;;;8.66;75.11;98838.06;4991939;28;20466;-79
2022/10/10 08:27:33;;;;;;;5.97;3.30;;;;;;;8.70;76.53;98833.88;5024147;28;20037;-79
2022/10/10 08:29:58;;;;;;;5.55;3.10;;;;;;;8.77;75.35;98839.88;5012075;28;20040;-79
2022/10/10 08:32:24;;;;;;;5.00;2.97;;;;;;;8.84;74.26;98835.25;5013599;28;20044;-79
2022/10/10 08:34:49;;;;;;;2.63;2.42;;;;;;;8.66;76.81;98819.44;5026090;28;20726;-79
2022/10/10 08:37:15;;;;;;;5.90;3.05;;;;;;;8.95;75.22;98837.00;5019502;28;20107;-79
2022/10/10 08:39:40;;;;;;;10.77;4.35;;;;;;;8.90;78.28;98828.13;5020486;28;20057;-79
2022/10/10 08:42:06;;;;;;;9.55;4.25;;;;;;;8.67;82.31;98823.69;5030252;28;20029;-79
2022/10/10 08:44:52;;;;;;;10.00;5.47;;;;;;;8.76;81.92;98824.94;5025824;28;20035;-79
2022/10/10 08:47:25;;;;;;;11.43;5.00;;;;;;;8.71;84.87;98813.41;5027319;28;20029;-78
2022/10/10 08:49:50;;;;;;;9.18;4.68;;;;;;;8.84;82.80;98819.28;5042408;28;20220;-78
2022/10/10 08:52:33;;;;;;;8.38;4.53;;;;;;;8.96;78.36;98808.56;5028330;28;20025;-79
2022/10/10 08:55:03;;;;;;;10.32;4.70;;;;;;;9.09;81.77;98812.78;5046897;28;20090;-78
2022/10/10 08:57:37;;;;;;;9.50;5.03;;;;;;;8.94;84.85;98811.47;5044532;28;20029;-78
2022/10/10 09:00:06;;;;;;;8.35;4.32;;;;;;;8.95;84.11;98804.28;5045373;28;20032;-78
2022/10/10 09:02:32;;;;;;;7.53;4.13;;;;;;;9.12;80.36;98814.97;5026421;28;20021;-79
2022/10/10 09:04:57;;;;;;;4.05;3.10;;;;;;;9.21;76.40;98816.19;5045246;28;20029;-79
2022/10/10 09:07:44;;;;;;;8.98;4.57;;;;;;;9.32;82.81;98796.66;5013217;28;20029;-78
2022/10/10 09:10:34;;;;;;;9.43;4.63;;;;;;;9.51;78.35;98803.38;5027735;28;20053;-78
2022/10/10 09:13:05;;;;;;;13.85;4.95;;;;;;;9.46;78.71;98800.63;5045433;28;20036;-79
2022/10/10 09:15:42;;;;;;;9.60;4.18;;;;;;;9.46;77.40;98777.44;5041900;28;20107;-79
2022/10/10 09:18:32;;;;;;;4.00;3.17;;;;;;;9.63;78.58;98799.56;5009759;28;20489;-78
2022/10/10 09:21:00;;;;;;;6.10;4.35;;;;;;;9.62;78.88;98800.63;5044599;28;20069;-79
2022/10/10 09:23:35;;;;;;;10.48;5.32;;;;;;;9.71;79.69;98809.03;5045576;28;20033;-78
2022/10/10 09:26:08;;;;;;;11.23;5.22;;;;;;;9.73;80.69;98799.72;5027821;28;20029;-78
2022/10/10 09:28:46;;;;;;;9.45;5.28;;;;;;;9.61;82.10;98785.69;5044826;28;20846;-79
2022/10/10 09:31:32;;;;;;;11.52;4.57;;;;;;;9.76;80.22;98795.78;5047103;28;20655;-79
2022/10/10 09:34:18;;;;;;;6.65;4.50;;;;;;;9.89;80.62;98802.63;5041757;28;20033;-78
2022/10/10 09:36:46;;;;;;;7.03;4.40;;;;;;;9.98;80.78;98793.16;5045095;28;20045;-79
2022/10/10 09:39:24;;;;;;;9.43;5.38;;;;;;;9.98;80.33;98783.28;5002942;28;20033;-79
2022/10/10 09:42:10;;;;;;;7.47;4.45;;;;;;;9.98;80.45;98793.16;5042742;28;20033;-79
2022/10/10 09:44:38;;;;;;;6.72;4.25;;;;;;;9.98;81.34;98796.59;5030644;28;20079;-79
2022/10/10 09:47:04;;;;;;;11.30;4.63;;;;;;;10.15;81.52;98785.94;5028531;28;20041;-78
2022/10/10 09:49:29;;;;;;;6.53;4.75;;;;;;;10.33;80.38;98783.78;5032390;28;20017;-78
2022/10/10 09:51:55;;;;;;;6.72;4.25;;;;;;;10.27;80.05;98775.97;5031209;28;20059;-79
2022/10/10 09:54:22;;;;;;;5.10;4.47;;;;;;;10.41;81.30;98788.69;5024444;28;20035;-79
2022/10/10 09:56:55;;;;;;;6.88;4.25;;;;;;;10.32;80.65;98770.69;5046907;28;20029;-78
2022/10/10 09:59:46;;;;;;;5.35;4.22;;;;;;;10.39;80.23;98785.47;5046445;28;20043;-79
2022/10/10 10:02:16;;;;;;;5.60;4.25;;;;;;;10.49;81.51;98788.25;5031972;28;20021;-79
2022/10/10 10:04:42;;;;;;;8.57;4.60;;;;;;;10.51;80.53;98783.47;5045121;28;20021;-79
2022/10/10 10:07:30;;;;;;;5.13;3.97;;;;;;;10.62;80.06;98788.91;5014439;28;20033;-79
2022/10/10 10:10:01;;;;;;;11.10;5.35;;;;;;;10.75;81.59;98777.84;5029317;28;20028;-79
2022/10/10 10:12:35;;;;;;;6.10;4.55;;;;;;;10.64;79.90;98766.25;5028661;28;20024;-79
2022/10/10 10:15:05;;;;;;;7.32;4.63;;;;;;;10.76;80.22;98782.13;5054813;28;20033;-79
2022/10/10 10:17:30;;;;;;;7.07;4.80;;;;;;;10.76;80.08;98776.81;5055457;28;20460;-79
2022/10/10 10:19:56;;;;;;;9.18;4.88;;;;;;;10.80;79.54;98765.38;5024555;28;20036;-79
2022/10/10 10:22:24;;;;;;;7.85;5.10;;;;;;;10.92;80.36;98776.69;5036625;28;20024;-78
2022/10/10 10:24:49;;;;;;;10.90;5.25;;;;;;;10.95;79.96;98751.34;5050350;28;20029;-79
2022/10/10 10:27:17;;;;;;;6.20;4.50;;;;;;;11.05;80.06;98765.59;5032372;28;20036;-78
2022/10/10 10:30:00;;;;;;;7.13;5.45;;;;;;;10.95;79.28;98756.69;5030675;28;20031;-79
2022/10/10 10:32:52;;;;;;;6.93;4.72;;;;;;;11.20;80.11;98767.63;5031442;28;20033;-79
2022/10/10 10:35:27;;;;;;;9.15;4.90;;;;;;;11.10;79.55;98771.00;5043759;28;20021;-79
2022/10/10 10:38:21;;;;;;;5.83;4.40;;;;;;;11.38;79.53;98764.53;5030184;28;20463;-79
2022/10/10 10:41:26;;;;;;;7.65;4.68;;;;;;;11.22;79.30;98769.00;5045730;28;20075;-78
2022/10/10 10:44:17;;;;;;;7.55;4.70;;;;;;;11.76;81.45;98772.34;5032286;28;20032;-78
2022/10/10 10:47:15;;;;;;;7.85;4.97;;;;;;;11.57;79.19;98770.31;5041198;28;20098;-79
2022/10/10 10:49:47;;;;;;;9.93;4.07;;;;;;;11.43;79.10;98758.44;5027820;28;20132;-79
2022/10/10 10:52:31;;;;;;;6.75;4.55;;;;;;;11.65;80.71;98761.81;5057829;28;20033;-79
2022/10/10 10:55:15;;;;;;;4.45;3.75;;;;;;;11.50;78.84;98743.81;5041848;28;20082;-79
2022/10/10 10:57:52;;;;;;;11.68;4.38;;;;;;;11.76;80.69;98761.66;5035366;28;20056;-79
2022/10/10 11:00:18;;;;;;;12.93;4.63;;;;;;;11.70;78.77;98753.88;5032761;28;20032;-79
2022/10/10 11:02:57;;;;;;;7.47;4.40;;;;;;;11.77;79.33;98768.59;5029370;28;20021;-79
2022/10/10 11:05:28;;;;;;;7.07;3.95;;;;;;;11.96;80.24;98761.78;5029190;28;20150;-78
2022/10/10 11:08:15;;;;;;;10.30;4.07;;;;;;;12.02;78.87;98755.41;5055589;28;20508;-79
2022/10/10 11:10:50;;;;;;;10.02;4.50;;;;;;;12.31;79.61;98760.34;5036932;28;20040;-79
2022/10/10 11:13:31;;;;;;;6.72;4.28;;;;;;;12.34;77.94;98760.63;5048267;28;20115;-79
2022/10/10 11:16:17;;;;;;;8.05;4.65;;;;;;;12.37;76.99;98732.53;5031722;28;20463;-79
2022/10/10 11:18:42;;;;;;;6.82;3.80;;;;;;;12.61;76.83;98763.13;5051302;28;20033;-79
2022/10/10 11:21:16;;;;;;;8.13;4.45;;;;;;;12.53;77.31;98736.88;5060097;28;20039;-79
2022/10/10 11:24:14;;;;;;;9.70;4.50;;;;;;;12.74;77.01;98754.59;5046571;28;20089;-79
2022/10/10 11:26:49;;;;;;;8.23;4.78;;;;;;;12.91;76.71;98757.06;5024127;28;20033;-79
2022/10/10 11:29:23;;;;;;;8.55;3.97;;;;;;;12.99;76.44;98757.34;5030391;28;20067;-79
2022/10/10 11:31:55;;;;;;;13.82;4.65;;;;;;;13.08;76.07;98750.41;5045166;28;20033;-79
2022/10/10 11:34:39;;;;;;;9.82;4.32;;;;;;;13.15;75.69;98736.75;5030842;28;20500;-79
2022/10/10 11:37:12;;;;;;;7.95;3.97;;;;;;;13.23;75.44;98745.06;5025340;28;20428;-79
2022/10/10 11:39:44;;;;;;;8.13;4.95;;;;;;;13.32;74.94;98746.09;5024818;28;20025;-79
2022/10/10 11:42:28;;;;;;;9.45;4.00;;;;;;;13.66;74.59;98761.66;5028418;28;20028;-79
2022/10/10 11:45:20;;;;;;;5.50;4.28;;;;;;;13.55;74.50;98752.81;5027929;28;20121;-79
2022/10/10 11:47:54;;;;;;;6.68;4.28;;;;;;;13.72;74.84;98766.72;5022599;28;20059;-79
2022/10/10 11:50:27;;;;;;;5.28;4.13;;;;;;;13.74;73.78;98758.44;5030283;28;20127;-79
2022/10/10 11:52:53;;;;;;;6.47;4.47;;;;;;;13.83;73.71;98762.97;5031486;28;20037;-79